Jonni Ritscher — A8JT7 — position and weather

sailwx.info

Track history (hours):
 
Tides and Currents Weather Stations Pressure Air Temp Water Temp Dewpoint Dewpoint Depression Visibility Wind Speed Wind Dir Waves Ship Positions

Jonni Ritscher

Last reported at 2016-Jun-29 08:33 UTC. Time now 2016-Jun-29 09:18 UTC.
Position N 60°25' E 026°55'.

Length 178 m; draft 10 m.

Type: Ship (hazmat cat A). MMSI: 636091136.

Date/timePositionNaut miles runAvg speedWind from/ knotsBaromVisibWave heightAir tempDewpointWater temp
2016-Jun-29 08:33N 60°25' E 026°55'0 0.0
2016-Jun-29 07:32N 60°25' E 026°55'0 0.0
2016-Jun-29 06:32N 60°25' E 026°55'0 0.0
2016-Jun-29 05:32N 60°25' E 026°55'0 0.0
2016-Jun-29 04:31N 60°25' E 026°55'0 0.1
2016-Jun-29 03:33N 60°25' E 026°55'0 0.1
2016-Jun-29 02:33N 60°25' E 026°55'0 0.0
2016-Jun-29 01:33N 60°25' E 026°55'0 0.1
2016-Jun-29 00:32N 60°25' E 026°55'0 0.1
2016-Jun-28 23:32N 60°25' E 026°55'0 0.1
2016-Jun-28 22:32N 60°25' E 026°55'0 0.1
2016-Jun-28 21:31N 60°25' E 026°55'0 0.0
2016-Jun-28 20:31N 60°25' E 026°55'0 0.0
2016-Jun-28 19:33N 60°25' E 026°55'0 0.1
2016-Jun-28 18:33N 60°25' E 026°55'0 0.1
2016-Jun-28 17:32N 60°25' E 026°55'0 0.0
2016-Jun-28 16:32N 60°25' E 026°55'0 0.1
2016-Jun-28 15:31N 60°25' E 026°55'0 0.1
2016-Jun-28 14:31N 60°25' E 026°55'0 0.1
2016-Jun-28 13:31N 60°25' E 026°55'0 0.1
2016-Jun-28 12:33N 60°25' E 026°55'0 0.0
2016-Jun-28 11:33N 60°25' E 026°55'0 0.0
2016-Jun-28 10:32N 60°25' E 026°55'0 0.0
2016-Jun-28 09:32N 60°25' E 026°55'0 0.0
2016-Jun-28 08:31N 60°25' E 026°55'0 0.0
2016-Jun-28 07:31N 60°25' E 026°55'0 0.0
2016-Jun-28 06:31N 60°25' E 026°55'0 0.0
2016-Jun-28 04:33N 60°25' E 026°55'0 0.1
2016-Jun-28 03:32N 60°25' E 026°55'0 0.1
2016-Jun-28 02:32N 60°25' E 026°55'4 4.6
2016-Jun-28 01:33N 60°23' E 026°47'1716.9
2016-Jun-28 00:33N 60°11' E 026°23'6515.8
2016-Jun-27 20:27N 59°44' E 024°25'1517.3
2016-Jun-27 19:33N 59°39' E 023°56'1717.1
2016-Jun-27 18:33N 59°34' E 023°24'1717.1
2016-Jun-27 17:33N 59°28' E 022°52'1716.8
2016-Jun-27 16:33N 59°20' E 022°23'29017.0
2016-Jun-26 23:31N 55°51' E 016°08'1717.3
2016-Jun-26 22:33N 55°43' E 015°42'1717.5
2016-Jun-26 21:33N 55°34' E 015°15'1817.7
2016-Jun-26 20:33N 55°26' E 014°47'1717.1
2016-Jun-26 19:33N 55°14' E 014°26'1717.3
2016-Jun-26 18:33N 55°01' E 014°06'1717.3
2016-Jun-26 17:33N 54°55' E 013°37'1717.3
2016-Jun-26 16:33N 54°50' E 013°09'1717.2
2016-Jun-26 15:33N 54°44' E 012°41'1717.0
2016-Jun-26 14:32N 54°34' E 012°17'1515.0
2016-Jun-26 13:33N 54°24' E 011°57'1716.7
2016-Jun-26 12:33N 54°29' E 011°30'1717.4
2016-Jun-26 11:33N 54°37' E 011°04'1514.9
2016-Jun-26 10:33N 54°51' E 010°52'1615.9
2016-Jun-26 09:33N 55°05' E 011°02'1514.7
2016-Jun-26 08:32N 55°21' E 011°02'10515.0
2016-Jun-26 01:33N 57°03' E 011°40'1716.9
2016-Jun-26 00:33N 57°19' E 011°30'1717.2
2016-Jun-25 23:33N 57°33' E 011°13'1817.6
2016-Jun-25 22:34N 57°45' E 010°49'1717.2
2016-Jun-25 21:34N 57°48' E 010°17'1717.2
2016-Jun-25 20:33N 57°39' E 009°49'1717.2
2016-Jun-25 19:34N 57°31' E 009°21'1817.5
2016-Jun-25 18:33N 57°21' E 008°54'1717.5
2016-Jun-25 17:34N 57°12' E 008°26'1717.2
2016-Jun-25 16:33N 56°59' E 008°06'5117.0
2016-Jun-25 13:33N 56°11' E 007°34'1716.6
2016-Jun-25 12:33N 55°55' E 007°27'1716.6
2016-Jun-25 11:33N 55°39' E 007°20'1716.9
2016-Jun-25 10:34N 55°22' E 007°24'1717.0
2016-Jun-25 09:34N 55°05' E 007°26'1717.2
2016-Jun-25 08:34N 54°48' E 007°28'1717.4
2016-Jun-25 07:33N 54°30' E 007°30'1817.6
2016-Jun-25 06:33N 54°13' E 007°31'1817.6
2016-Jun-25 05:33N 53°56' E 007°42'1818.0
2016-Jun-25 04:34N 53°44' E 008°04'9 8.8
2016-Jun-25 03:33N 53°36' E 008°09'0 0.0
2016-Jun-25 02:32N 53°36' E 008°09'0 0.0
2016-Jun-25 01:32N 53°36' E 008°09'0 0.0
2016-Jun-25 00:32N 53°36' E 008°09'0 0.0
2016-Jun-24 23:31N 53°36' E 008°09'0 0.0
2016-Jun-24 22:31N 53°36' E 008°09'0 0.0
2016-Jun-24 21:30N 53°36' E 008°09'0 0.0
2016-Jun-24 20:33N 53°36' E 008°09'0 0.0
2016-Jun-24 19:29N 53°36' E 008°09'0 0.0
2016-Jun-24 18:29N 53°36' E 008°09'0 0.0
2016-Jun-24 17:28N 53°36' E 008°09'0 0.0
2016-Jun-24 16:22N 53°36' E 008°09'0 0.0
2016-Jun-24 15:31N 53°36' E 008°09'6 6.8
2016-Jun-24 14:33N 53°42' E 008°05'9 8.5
2016-Jun-24 13:33N 53°50' E 008°05'1717.4
2016-Jun-24 12:33N 53°38' E 008°26'5 5.0
2016-Jun-24 11:33N 53°35' E 008°32'0 0.0
2016-Jun-24 10:33N 53°35' E 008°32'0 0.0
2016-Jun-24 09:32N 53°35' E 008°32'0 0.0
2016-Jun-24 08:29N 53°35' E 008°32'0 0.0
2016-Jun-24 07:31N 53°35' E 008°32'0 0.0
2016-Jun-24 04:33N 53°35' E 008°32'0 0.0
2016-Jun-24 03:33N 53°35' E 008°32'0 0.0
2016-Jun-24 02:32N 53°35' E 008°32'0 0.0
2016-Jun-24 01:32N 53°35' E 008°32'0 0.0
2016-Jun-24 00:31N 53°35' E 008°32'0 0.0
2016-Jun-23 23:31N 53°35' E 008°32'0 0.0
2016-Jun-23 22:30N 53°35' E 008°32'0 0.2
2016-Jun-23 21:33N 53°35' E 008°32'7 7.2
2016-Jun-23 20:33N 53°40' E 008°23'1414.3
2016-Jun-23 19:33N 53°50' E 008°06'10 9.8
2016-Jun-23 18:33N 53°55' E 007°52'0 0.1
2016-Jun-23 17:32N 53°55' E 007°52'0 0.0
2016-Jun-23 16:31N 53°55' E 007°52'0 0.0
2016-Jun-23 15:31N 53°55' E 007°52'0 0.1
2016-Jun-23 14:32N 53°55' E 007°52'0 0.0
2016-Jun-23 13:33N 53°55' E 007°52'0 0.0
2016-Jun-23 12:32N 53°55' E 007°52'0 0.0
2016-Jun-23 11:32N 53°55' E 007°52'0 0.0
2016-Jun-23 10:07N 53°55' E 007°52'0 0.0
2016-Jun-23 09:28N 53°55' E 007°52'0 0.1
2016-Jun-23 08:32N 53°55' E 007°52'0 0.1
2016-Jun-23 07:33N 53°55' E 007°52'0 0.0
2016-Jun-23 05:33N 53°55' E 007°52'0 0.0
2016-Jun-23 04:33N 53°55' E 007°52'0 0.1
2016-Jun-23 03:34N 53°55' E 007°52'1212.1
2016-Jun-23 02:33N 54°01' E 008°11'1717.1
2016-Jun-23 01:34N 53°57' E 008°39'1312.9
2016-Jun-23 00:33N 53°51' E 008°59'1010.5
2016-Jun-22 23:34N 53°52' E 009°16'1515.1
2016-Jun-22 22:33N 53°40' E 009°31'1111.2
2016-Jun-22 21:33N 53°34' E 009°47'5 4.6
2016-Jun-22 20:31N 53°32' E 009°54'0 0.0
2016-Jun-22 19:31N 53°32' E 009°54'0 0.0
2016-Jun-22 18:33N 53°32' E 009°54'0 0.0
2016-Jun-22 17:33N 53°32' E 009°54'0 0.0
2016-Jun-22 16:33N 53°32' E 009°54'0 0.0
2016-Jun-22 15:32N 53°32' E 009°54'0 0.0
2016-Jun-22 14:32N 53°32' E 009°54'0 0.0
2016-Jun-22 13:31N 53°32' E 009°54'0 0.0
2016-Jun-22 12:33N 53°32' E 009°54'5 5.3
2016-Jun-22 11:33N 53°34' E 009°46'1110.9
2016-Jun-22 10:34N 53°40' E 009°31'1414.0
2016-Jun-22 09:34N 53°52' E 009°18'10 9.9
2016-Jun-22 08:34N 53°51' E 009°01'1312.7
2016-Jun-22 07:33N 53°55' E 008°41'1413.8
2016-Jun-22 06:33N 53°60' E 008°18'1312.7
2016-Jun-22 05:33N 54°02' E 007°57'1717.2
2016-Jun-22 04:33N 54°14' E 007°37'1918.8
2016-Jun-22 03:33N 54°33' E 007°30'1918.6
2016-Jun-22 02:33N 54°51' E 007°28'1919.0
2016-Jun-22 01:34N 55°10' E 007°26'1919.3
2016-Jun-22 00:33N 55°29' E 007°22'1919.0
2016-Jun-21 23:34N 55°48' E 007°23'11018.3
2016-Jun-21 17:32N 57°24' E 009°01'1818.7
2016-Jun-21 16:33N 57°34' E 009°30'1918.7
2016-Jun-21 15:33N 57°44' E 009°59'1818.1
2016-Jun-21 14:34N 57°50' E 010°32'1817.8
2016-Jun-21 13:33N 57°42' E 011°01'1919.0
2016-Jun-21 12:33N 57°28' E 011°26'2019.9
2016-Jun-21 11:34N 57°09' E 011°38'2019.8
2016-Jun-21 10:33N 56°51' E 011°50'1817.7
2016-Jun-21 09:33N 56°34' E 011°42'3819.0
2016-Jun-21 07:33N 56°01' E 011°05'4414.6
2016-Jun-21 04:33N 55°17' E 011°04'1313.1
2016-Jun-21 03:33N 55°05' E 010°59'1615.7
2016-Jun-21 02:34N 54°50' E 010°50'1211.8
2016-Jun-21 01:33N 54°38' E 010°54'1919.3
2016-Jun-21 00:33N 54°32' E 011°25'2019.7
2016-Jun-20 23:33N 54°26' E 011°58'1716.8
2016-Jun-20 22:33N 54°37' E 012°19'1918.7
2016-Jun-20 21:33N 54°47' E 012°47'2019.6
2016-Jun-20 20:33N 54°55' E 013°18'2019.5
2016-Jun-20 19:33N 55°01' E 013°50'1918.5
2016-Jun-20 18:33N 55°13' E 014°16'1919.5
2016-Jun-20 17:33N 55°28' E 014°38'2019.6
2016-Jun-20 16:33N 55°37' E 015°08'2019.7
2016-Jun-20 15:33N 55°47' E 015°38'31219.2
2016-Jun-19 23:18N 59°30' E 022°27'1718.7
2016-Jun-19 22:23N 59°35' E 022°59'1619.0
2016-Jun-19 21:33N 59°40' E 023°29'1919.1
2016-Jun-19 20:33N 59°45' E 024°05'1919.3
2016-Jun-19 19:33N 59°49' E 024°43'2919.2
2016-Jun-19 18:04N 59°54' E 025°39'1119.2
2016-Jun-19 17:29N 59°57' E 026°00'1819.2
2016-Jun-19 16:32N 60°01' E 026°35'1818.6
2016-Jun-19 15:33N 60°02' E 027°12'5317.6
2016-Jun-19 12:33N 60°03' E 028°58'1616.3
2016-Jun-19 11:33N 60°01' E 029°30'10 9.8
2016-Jun-19 10:33N 59°58' E 029°49'1010.3
2016-Jun-19 09:33N 59°54' E 030°07'  
Track history (hours):
 
Tides and Currents Weather Stations Pressure Air Temp Water Temp Dewpoint Dewpoint Depression Visibility Wind Speed Wind Dir Waves Ship Positions

Jonni Ritscher

Last reported at 2016-Jun-29 08:33 UTC. Time now 2016-Jun-29 09:18 UTC.
Position N 60°25' E 026°55'.

Length 178 m; draft 10 m.

Type: Ship (hazmat cat A). MMSI: 636091136.

Date/timePositionNaut miles runAvg speedWind from/ knotsBaromVisibWave heightAir tempDewpointWater temp
2016-Jun-29 08:33N 60°25' E 026°55'0 0.0
2016-Jun-29 07:32N 60°25' E 026°55'0 0.0
2016-Jun-29 06:32N 60°25' E 026°55'0 0.0
2016-Jun-29 05:32N 60°25' E 026°55'0 0.0
2016-Jun-29 04:31N 60°25' E 026°55'0 0.1
2016-Jun-29 03:33N 60°25' E 026°55'0 0.1
2016-Jun-29 02:33N 60°25' E 026°55'0 0.0
2016-Jun-29 01:33N 60°25' E 026°55'0 0.1
2016-Jun-29 00:32N 60°25' E 026°55'0 0.1
2016-Jun-28 23:32N 60°25' E 026°55'0 0.1
2016-Jun-28 22:32N 60°25' E 026°55'0 0.1
2016-Jun-28 21:31N 60°25' E 026°55'0 0.0
2016-Jun-28 20:31N 60°25' E 026°55'0 0.0
2016-Jun-28 19:33N 60°25' E 026°55'0 0.1
2016-Jun-28 18:33N 60°25' E 026°55'0 0.1
2016-Jun-28 17:32N 60°25' E 026°55'0 0.0
2016-Jun-28 16:32N 60°25' E 026°55'0 0.1
2016-Jun-28 15:31N 60°25' E 026°55'0 0.1
2016-Jun-28 14:31N 60°25' E 026°55'0 0.1
2016-Jun-28 13:31N 60°25' E 026°55'0 0.1
2016-Jun-28 12:33N 60°25' E 026°55'0 0.0
2016-Jun-28 11:33N 60°25' E 026°55'0 0.0
2016-Jun-28 10:32N 60°25' E 026°55'0 0.0
2016-Jun-28 09:32N 60°25' E 026°55'0 0.0
2016-Jun-28 08:31N 60°25' E 026°55'0 0.0
2016-Jun-28 07:31N 60°25' E 026°55'0 0.0
2016-Jun-28 06:31N 60°25' E 026°55'0 0.0
2016-Jun-28 04:33N 60°25' E 026°55'0 0.1
2016-Jun-28 03:32N 60°25' E 026°55'0 0.1
2016-Jun-28 02:32N 60°25' E 026°55'4 4.6
2016-Jun-28 01:33N 60°23' E 026°47'1716.9
2016-Jun-28 00:33N 60°11' E 026°23'6515.8
2016-Jun-27 20:27N 59°44' E 024°25'1517.3
2016-Jun-27 19:33N 59°39' E 023°56'1717.1
2016-Jun-27 18:33N 59°34' E 023°24'1717.1
2016-Jun-27 17:33N 59°28' E 022°52'1716.8
2016-Jun-27 16:33N 59°20' E 022°23'29017.0
2016-Jun-26 23:31N 55°51' E 016°08'1717.3
2016-Jun-26 22:33N 55°43' E 015°42'1717.5
2016-Jun-26 21:33N 55°34' E 015°15'1817.7
2016-Jun-26 20:33N 55°26' E 014°47'1717.1
2016-Jun-26 19:33N 55°14' E 014°26'1717.3
2016-Jun-26 18:33N 55°01' E 014°06'1717.3
2016-Jun-26 17:33N 54°55' E 013°37'1717.3
2016-Jun-26 16:33N 54°50' E 013°09'1717.2
2016-Jun-26 15:33N 54°44' E 012°41'1717.0
2016-Jun-26 14:32N 54°34' E 012°17'1515.0
2016-Jun-26 13:33N 54°24' E 011°57'1716.7
2016-Jun-26 12:33N 54°29' E 011°30'1717.4
2016-Jun-26 11:33N 54°37' E 011°04'1514.9
2016-Jun-26 10:33N 54°51' E 010°52'1615.9
2016-Jun-26 09:33N 55°05' E 011°02'1514.7
2016-Jun-26 08:32N 55°21' E 011°02'10515.0
2016-Jun-26 01:33N 57°03' E 011°40'1716.9
2016-Jun-26 00:33N 57°19' E 011°30'1717.2
2016-Jun-25 23:33N 57°33' E 011°13'1817.6
2016-Jun-25 22:34N 57°45' E 010°49'1717.2
2016-Jun-25 21:34N 57°48' E 010°17'1717.2
2016-Jun-25 20:33N 57°39' E 009°49'1717.2
2016-Jun-25 19:34N 57°31' E 009°21'1817.5
2016-Jun-25 18:33N 57°21' E 008°54'1717.5
2016-Jun-25 17:34N 57°12' E 008°26'1717.2
2016-Jun-25 16:33N 56°59' E 008°06'5117.0
2016-Jun-25 13:33N 56°11' E 007°34'1716.6
2016-Jun-25 12:33N 55°55' E 007°27'1716.6
2016-Jun-25 11:33N 55°39' E 007°20'1716.9
2016-Jun-25 10:34N 55°22' E 007°24'1717.0
2016-Jun-25 09:34N 55°05' E 007°26'1717.2
2016-Jun-25 08:34N 54°48' E 007°28'1717.4
2016-Jun-25 07:33N 54°30' E 007°30'1817.6
2016-Jun-25 06:33N 54°13' E 007°31'1817.6
2016-Jun-25 05:33N 53°56' E 007°42'1818.0
2016-Jun-25 04:34N 53°44' E 008°04'9 8.8
2016-Jun-25 03:33N 53°36' E 008°09'0 0.0
2016-Jun-25 02:32N 53°36' E 008°09'0 0.0
2016-Jun-25 01:32N 53°36' E 008°09'0 0.0
2016-Jun-25 00:32N 53°36' E 008°09'0 0.0
2016-Jun-24 23:31N 53°36' E 008°09'0 0.0
2016-Jun-24 22:31N 53°36' E 008°09'0 0.0
2016-Jun-24 21:30N 53°36' E 008°09'0 0.0
2016-Jun-24 20:33N 53°36' E 008°09'0 0.0
2016-Jun-24 19:29N 53°36' E 008°09'0 0.0
2016-Jun-24 18:29N 53°36' E 008°09'0 0.0
2016-Jun-24 17:28N 53°36' E 008°09'0 0.0
2016-Jun-24 16:22N 53°36' E 008°09'0 0.0
2016-Jun-24 15:31N 53°36' E 008°09'6 6.8
2016-Jun-24 14:33N 53°42' E 008°05'9 8.5
2016-Jun-24 13:33N 53°50' E 008°05'1717.4
2016-Jun-24 12:33N 53°38' E 008°26'5 5.0
2016-Jun-24 11:33N 53°35' E 008°32'0 0.0
2016-Jun-24 10:33N 53°35' E 008°32'0 0.0
2016-Jun-24 09:32N 53°35' E 008°32'0 0.0
2016-Jun-24 08:29N 53°35' E 008°32'0 0.0
2016-Jun-24 07:31N 53°35' E 008°32'0 0.0
2016-Jun-24 04:33N 53°35' E 008°32'0 0.0
2016-Jun-24 03:33N 53°35' E 008°32'0 0.0
2016-Jun-24 02:32N 53°35' E 008°32'0 0.0
2016-Jun-24 01:32N 53°35' E 008°32'0 0.0
2016-Jun-24 00:31N 53°35' E 008°32'0 0.0
2016-Jun-23 23:31N 53°35' E 008°32'0 0.0
2016-Jun-23 22:30N 53°35' E 008°32'0 0.2
2016-Jun-23 21:33N 53°35' E 008°32'7 7.2
2016-Jun-23 20:33N 53°40' E 008°23'1414.3
2016-Jun-23 19:33N 53°50' E 008°06'10 9.8
2016-Jun-23 18:33N 53°55' E 007°52'0 0.1
2016-Jun-23 17:32N 53°55' E 007°52'0 0.0
2016-Jun-23 16:31N 53°55' E 007°52'0 0.0
2016-Jun-23 15:31N 53°55' E 007°52'0 0.1
2016-Jun-23 14:32N 53°55' E 007°52'0 0.0
2016-Jun-23 13:33N 53°55' E 007°52'0 0.0
2016-Jun-23 12:32N 53°55' E 007°52'0 0.0
2016-Jun-23 11:32N 53°55' E 007°52'0 0.0
2016-Jun-23 10:07N 53°55' E 007°52'0 0.0
2016-Jun-23 09:28N 53°55' E 007°52'0 0.1
2016-Jun-23 08:32N 53°55' E 007°52'0 0.1
2016-Jun-23 07:33N 53°55' E 007°52'0 0.0
2016-Jun-23 05:33N 53°55' E 007°52'0 0.0
2016-Jun-23 04:33N 53°55' E 007°52'0 0.1
2016-Jun-23 03:34N 53°55' E 007°52'1212.1
2016-Jun-23 02:33N 54°01' E 008°11'1717.1
2016-Jun-23 01:34N 53°57' E 008°39'1312.9
2016-Jun-23 00:33N 53°51' E 008°59'1010.5
2016-Jun-22 23:34N 53°52' E 009°16'1515.1
2016-Jun-22 22:33N 53°40' E 009°31'1111.2
2016-Jun-22 21:33N 53°34' E 009°47'5 4.6
2016-Jun-22 20:31N 53°32' E 009°54'0 0.0
2016-Jun-22 19:31N 53°32' E 009°54'0 0.0
2016-Jun-22 18:33N 53°32' E 009°54'0 0.0
2016-Jun-22 17:33N 53°32' E 009°54'0 0.0
2016-Jun-22 16:33N 53°32' E 009°54'0 0.0
2016-Jun-22 15:32N 53°32' E 009°54'0 0.0
2016-Jun-22 14:32N 53°32' E 009°54'0 0.0
2016-Jun-22 13:31N 53°32' E 009°54'0 0.0
2016-Jun-22 12:33N 53°32' E 009°54'5 5.3
2016-Jun-22 11:33N 53°34' E 009°46'1110.9
2016-Jun-22 10:34N 53°40' E 009°31'1414.0
2016-Jun-22 09:34N 53°52' E 009°18'10 9.9
2016-Jun-22 08:34N 53°51' E 009°01'1312.7
2016-Jun-22 07:33N 53°55' E 008°41'1413.8
2016-Jun-22 06:33N 53°60' E 008°18'1312.7
2016-Jun-22 05:33N 54°02' E 007°57'1717.2
2016-Jun-22 04:33N 54°14' E 007°37'1918.8
2016-Jun-22 03:33N 54°33' E 007°30'1918.6
2016-Jun-22 02:33N 54°51' E 007°28'1919.0
2016-Jun-22 01:34N 55°10' E 007°26'1919.3
2016-Jun-22 00:33N 55°29' E 007°22'1919.0
2016-Jun-21 23:34N 55°48' E 007°23'11018.3
2016-Jun-21 17:32N 57°24' E 009°01'1818.7
2016-Jun-21 16:33N 57°34' E 009°30'1918.7
2016-Jun-21 15:33N 57°44' E 009°59'1818.1
2016-Jun-21 14:34N 57°50' E 010°32'1817.8
2016-Jun-21 13:33N 57°42' E 011°01'1919.0
2016-Jun-21 12:33N 57°28' E 011°26'2019.9
2016-Jun-21 11:34N 57°09' E 011°38'2019.8
2016-Jun-21 10:33N 56°51' E 011°50'1817.7
2016-Jun-21 09:33N 56°34' E 011°42'3819.0
2016-Jun-21 07:33N 56°01' E 011°05'4414.6
2016-Jun-21 04:33N 55°17' E 011°04'1313.1
2016-Jun-21 03:33N 55°05' E 010°59'1615.7
2016-Jun-21 02:34N 54°50' E 010°50'1211.8
2016-Jun-21 01:33N 54°38' E 010°54'1919.3
2016-Jun-21 00:33N 54°32' E 011°25'2019.7
2016-Jun-20 23:33N 54°26' E 011°58'1716.8
2016-Jun-20 22:33N 54°37' E 012°19'1918.7
2016-Jun-20 21:33N 54°47' E 012°47'2019.6
2016-Jun-20 20:33N 54°55' E 013°18'2019.5
2016-Jun-20 19:33N 55°01' E 013°50'1918.5
2016-Jun-20 18:33N 55°13' E 014°16'1919.5
2016-Jun-20 17:33N 55°28' E 014°38'2019.6
2016-Jun-20 16:33N 55°37' E 015°08'2019.7
2016-Jun-20 15:33N 55°47' E 015°38'31219.2
2016-Jun-19 23:18N 59°30' E 022°27'1718.7
2016-Jun-19 22:23N 59°35' E 022°59'1619.0
2016-Jun-19 21:33N 59°40' E 023°29'1919.1
2016-Jun-19 20:33N 59°45' E 024°05'1919.3
2016-Jun-19 19:33N 59°49' E 024°43'2919.2
2016-Jun-19 18:04N 59°54' E 025°39'1119.2
2016-Jun-19 17:29N 59°57' E 026°00'1819.2
2016-Jun-19 16:32N 60°01' E 026°35'1818.6
2016-Jun-19 15:33N 60°02' E 027°12'5317.6
2016-Jun-19 12:33N 60°03' E 028°58'1616.3
2016-Jun-19 11:33N 60°01' E 029°30'10 9.8
2016-Jun-19 10:33N 59°58' E 029°49'1010.3
2016-Jun-19 09:33N 59°54' E 030°07'  

Dump ship's entire track history